sensor_id;sensor_type;location;lat;lon;timestamp;pressure;altitude;pressure_sealevel;temperature;humidity
70445;BME280;57902;49.638;11.070;2023-02-28T00:01:21;99205.03;;;-2.51;81.26
70445;BME280;57902;49.638;11.070;2023-02-28T00:03:48;99211.88;;;-2.48;80.48
70445;BME280;57902;49.638;11.070;2023-02-28T00:06:15;99206.47;;;-2.57;81.56
70445;BME280;57902;49.638;11.070;2023-02-28T00:08:41;99206.22;;;-2.64;81.82
70445;BME280;57902;49.638;11.070;2023-02-28T00:11:12;99205.28;;;-2.67;81.81
70445;BME280;57902;49.638;11.070;2023-02-28T00:13:42;99207.13;;;-2.61;81.39
70445;BME280;57902;49.638;11.070;2023-02-28T00:16:12;99201.75;;;-2.71;82.44
70445;BME280;57902;49.638;11.070;2023-02-28T00:18:40;99207.13;;;-2.84;83.74
70445;BME280;57902;49.638;11.070;2023-02-28T00:21:07;99203.09;;;-2.79;83.36
70445;BME280;57902;49.638;11.070;2023-02-28T00:23:33;99198.50;;;-2.89;84.07
70445;BME280;57902;49.638;11.070;2023-02-28T00:26:00;99209.78;;;-2.81;82.87
70445;BME280;57902;49.638;11.070;2023-02-28T00:28:27;99199.09;;;-2.96;84.34
70445;BME280;57902;49.638;11.070;2023-02-28T00:30:53;99200.91;;;-2.92;83.86
70445;BME280;57902;49.638;11.070;2023-02-28T00:33:20;99204.00;;;-3.00;84.83
70445;BME280;57902;49.638;11.070;2023-02-28T00:35:46;99199.59;;;-3.05;85.05
70445;BME280;57902;49.638;11.070;2023-02-28T00:38:14;99206.16;;;-3.09;85.32
70445;BME280;57902;49.638;11.070;2023-02-28T00:40:40;99197.63;;;-3.12;85.73
70445;BME280;57902;49.638;11.070;2023-02-28T00:43:07;99199.16;;;-3.16;86.13
70445;BME280;57902;49.638;11.070;2023-02-28T00:45:34;99195.66;;;-3.20;86.12
70445;BME280;57902;49.638;11.070;2023-02-28T00:48:00;99199.75;;;-3.22;86.58
70445;BME280;57902;49.638;11.070;2023-02-28T00:50:27;99201.31;;;-3.25;86.52
70445;BME280;57902;49.638;11.070;2023-02-28T00:52:53;99208.09;;;-3.24;86.06
70445;BME280;57902;49.638;11.070;2023-02-28T00:55:19;99207.22;;;-3.25;86.30
70445;BME280;57902;49.638;11.070;2023-02-28T00:57:46;99199.47;;;-3.29;86.55
70445;BME280;57902;49.638;11.070;2023-02-28T01:00:13;99205.28;;;-3.30;86.88
70445;BME280;57902;49.638;11.070;2023-02-28T01:02:39;99192.69;;;-3.30;86.52
70445;BME280;57902;49.638;11.070;2023-02-28T01:05:06;99196.03;;;-3.31;86.50
70445;BME280;57902;49.638;11.070;2023-02-28T01:07:32;99188.47;;;-3.31;86.40
70445;BME280;57902;49.638;11.070;2023-02-28T01:09:59;99195.78;;;-3.38;86.49
70445;BME280;57902;49.638;11.070;2023-02-28T01:12:25;99198.16;;;-3.41;86.85
70445;BME280;57902;49.638;11.070;2023-02-28T01:14:53;99190.41;;;-3.45;87.19
70445;BME280;57902;49.638;11.070;2023-02-28T01:17:19;99190.22;;;-3.50;87.50
70445;BME280;57902;49.638;11.070;2023-02-28T01:19:45;99188.50;;;-3.51;87.68
70445;BME280;57902;49.638;11.070;2023-02-28T01:22:12;99188.38;;;-3.54;87.58
70445;BME280;57902;49.638;11.070;2023-02-28T01:24:38;99179.78;;;-3.59;87.86
70445;BME280;57902;49.638;11.070;2023-02-28T01:27:05;99183.88;;;-3.61;88.10
70445;BME280;57902;49.638;11.070;2023-02-28T01:29:31;99184.75;;;-3.61;87.91
70445;BME280;57902;49.638;11.070;2023-02-28T01:31:57;99179.53;;;-3.65;88.04
70445;BME280;57902;49.638;11.070;2023-02-28T01:34:25;99182.66;;;-3.71;88.99
70445;BME280;57902;49.638;11.070;2023-02-28T01:36:52;99178.22;;;-3.77;88.86
70445;BME280;57902;49.638;11.070;2023-02-28T01:39:18;99178.28;;;-3.75;88.81
70445;BME280;57902;49.638;11.070;2023-02-28T01:41:45;99175.56;;;-3.80;89.58
70445;BME280;57902;49.638;11.070;2023-02-28T01:47:16;99170.00;;;-3.73;89.01
70445;BME280;57902;49.638;11.070;2023-02-28T01:49:42;99174.28;;;-3.70;89.18
70445;BME280;57902;49.638;11.070;2023-02-28T01:52:10;99169.25;;;-3.70;88.90
70445;BME280;57902;49.638;11.070;2023-02-28T01:54:41;99171.03;;;-3.67;89.50
70445;BME280;57902;49.638;11.070;2023-02-28T01:57:11;99174.50;;;-3.65;88.87
70445;BME280;57902;49.638;11.070;2023-02-28T02:00:03;99168.56;;;-3.66;88.72
70445;BME280;57902;49.638;11.070;2023-02-28T02:02:30;99166.88;;;-3.67;88.91
70445;BME280;57902;49.638;11.070;2023-02-28T02:05:03;99168.63;;;-3.64;88.41
70445;BME280;57902;49.638;11.070;2023-02-28T02:07:32;99164.25;;;-3.69;88.89
70445;BME280;57902;49.638;11.070;2023-02-28T02:10:02;99159.44;;;-3.64;88.41
70445;BME280;57902;49.638;11.070;2023-02-28T02:12:49;99162.94;;;-3.60;88.18
70445;BME280;57902;49.638;11.070;2023-02-28T02:17:57;99153.63;;;-3.61;88.45
70445;BME280;57902;49.638;11.070;2023-02-28T02:20:50;99149.28;;;-3.65;88.33
70445;BME280;57902;49.638;11.070;2023-02-28T02:26:58;99145.84;;;-3.67;88.62
70445;BME280;57902;49.638;11.070;2023-02-28T02:30:02;99149.03;;;-3.72;89.26
70445;BME280;57902;49.638;11.070;2023-02-28T02:32:54;99146.63;;;-3.69;88.65
70445;BME280;57902;49.638;11.070;2023-02-28T02:35:32;99141.47;;;-3.72;88.78
70445;BME280;57902;49.638;11.070;2023-02-28T02:38:34;99143.97;;;-3.72;89.19
70445;BME280;57902;49.638;11.070;2023-02-28T02:43:48;99136.31;;;-3.75;89.24
70445;BME280;57902;49.638;11.070;2023-02-28T02:46:35;99142.34;;;-3.71;88.89
70445;BME280;57902;49.638;11.070;2023-02-28T02:49:08;99142.41;;;-3.70;88.72
70445;BME280;57902;49.638;11.070;2023-02-28T02:51:38;99141.53;;;-3.70;88.82
70445;BME280;57902;49.638;11.070;2023-02-28T02:54:16;99140.69;;;-3.71;88.83
70445;BME280;57902;49.638;11.070;2023-02-28T02:56:46;99143.38;;;-3.66;88.56
70445;BME280;57902;49.638;11.070;2023-02-28T02:59:16;99142.66;;;-3.63;88.06
70445;BME280;57902;49.638;11.070;2023-02-28T03:01:55;99139.34;;;-3.62;88.15
70445;BME280;57902;49.638;11.070;2023-02-28T03:04:24;99137.97;;;-3.54;87.00
70445;BME280;57902;49.638;11.070;2023-02-28T03:06:54;99138.97;;;-3.50;86.85
70445;BME280;57902;49.638;11.070;2023-02-28T03:09:22;99137.34;;;-3.48;86.61
70445;BME280;57902;49.638;11.070;2023-02-28T03:11:49;99140.38;;;-3.57;87.84
70445;BME280;57902;49.638;11.070;2023-02-28T03:23:02;99145.59;;;-3.53;87.70
70445;BME280;57902;49.638;11.070;2023-02-28T03:25:33;99145.66;;;-3.51;87.72
70445;BME280;57902;49.638;11.070;2023-02-28T03:31:07;99145.66;;;-3.51;87.04
70445;BME280;57902;49.638;11.070;2023-02-28T03:33:38;99146.34;;;-3.55;86.78
70445;BME280;57902;49.638;11.070;2023-02-28T03:36:13;99152.72;;;-3.63;87.10
70445;BME280;57902;49.638;11.070;2023-02-28T03:38:53;99151.75;;;-3.67;87.16
70445;BME280;57902;49.638;11.070;2023-02-28T03:41:52;99154.00;;;-3.73;86.25
70445;BME280;57902;49.638;11.070;2023-02-28T03:44:22;99155.66;;;-3.74;86.58
70445;BME280;57902;49.638;11.070;2023-02-28T03:46:57;99157.53;;;-3.89;86.96
70445;BME280;57902;49.638;11.070;2023-02-28T03:49:30;99154.63;;;-3.98;87.67
70445;BME280;57902;49.638;11.070;2023-02-28T03:52:01;99155.22;;;-4.04;87.31
70445;BME280;57902;49.638;11.070;2023-02-28T03:54:31;99156.78;;;-4.08;88.40
70445;BME280;57902;49.638;11.070;2023-02-28T03:57:12;99147.09;;;-4.18;87.27
70445;BME280;57902;49.638;11.070;2023-02-28T03:59:47;99157.63;;;-4.27;87.52
70445;BME280;57902;49.638;11.070;2023-02-28T04:02:17;99154.09;;;-4.30;89.02
70445;BME280;57902;49.638;11.070;2023-02-28T04:04:44;99156.38;;;-4.36;88.22
70445;BME280;57902;49.638;11.070;2023-02-28T04:07:15;99154.66;;;-4.37;89.37
70445;BME280;57902;49.638;11.070;2023-02-28T04:09:42;99161.53;;;-4.33;88.56
70445;BME280;57902;49.638;11.070;2023-02-28T04:12:09;99154.38;;;-4.44;89.62
70445;BME280;57902;49.638;11.070;2023-02-28T04:14:35;99160.34;;;-4.42;90.71
70445;BME280;57902;49.638;11.070;2023-02-28T04:17:02;99156.56;;;-4.32;88.74
70445;BME280;57902;49.638;11.070;2023-02-28T04:19:28;99151.75;;;-4.27;88.79
70445;BME280;57902;49.638;11.070;2023-02-28T04:21:55;99152.00;;;-4.01;88.86
70445;BME280;57902;49.638;11.070;2023-02-28T04:24:24;99154.81;;;-3.94;89.57
70445;BME280;57902;49.638;11.070;2023-02-28T04:26:53;99152.72;;;-3.84;89.33
70445;BME280;57902;49.638;11.070;2023-02-28T04:29:23;99152.09;;;-3.79;89.62
70445;BME280;57902;49.638;11.070;2023-02-28T04:31:49;99149.28;;;-3.65;89.15
70445;BME280;57902;49.638;11.070;2023-02-28T04:34:16;99143.88;;;-3.54;88.13
70445;BME280;57902;49.638;11.070;2023-02-28T04:36:45;99141.44;;;-3.52;88.75
70445;BME280;57902;49.638;11.070;2023-02-28T04:39:12;99150.69;;;-3.51;88.24
70445;BME280;57902;49.638;11.070;2023-02-28T04:41:38;99149.34;;;-3.43;87.81
70445;BME280;57902;49.638;11.070;2023-02-28T04:44:05;99148.56;;;-3.42;87.79
70445;BME280;57902;49.638;11.070;2023-02-28T04:46:31;99151.94;;;-3.41;87.85
70445;BME280;57902;49.638;11.070;2023-02-28T04:48:58;99153.38;;;-3.48;88.25
70445;BME280;57902;49.638;11.070;2023-02-28T04:51:25;99155.00;;;-3.48;88.31
70445;BME280;57902;49.638;11.070;2023-02-28T04:53:52;99151.63;;;-3.49;88.08
70445;BME280;57902;49.638;11.070;2023-02-28T04:56:18;99153.09;;;-3.54;88.30
70445;BME280;57902;49.638;11.070;2023-02-28T04:58:45;99149.00;;;-3.52;87.94
70445;BME280;57902;49.638;11.070;2023-02-28T05:03:50;99155.25;;;-3.42;87.82
70445;BME280;57902;49.638;11.070;2023-02-28T05:06:18;99149.91;;;-3.50;88.37
70445;BME280;57902;49.638;11.070;2023-02-28T05:08:45;99160.72;;;-3.53;88.62
70445;BME280;57902;49.638;11.070;2023-02-28T05:11:32;99158.78;;;-3.39;88.04
70445;BME280;57902;49.638;11.070;2023-02-28T05:14:03;99157.16;;;-3.37;87.34
70445;BME280;57902;49.638;11.070;2023-02-28T05:16:31;99157.75;;;-3.42;87.93
70445;BME280;57902;49.638;11.070;2023-02-28T05:18:58;99156.19;;;-3.40;87.14
70445;BME280;57902;49.638;11.070;2023-02-28T05:21:28;99161.16;;;-3.42;87.49
70445;BME280;57902;49.638;11.070;2023-02-28T05:23:56;99160.09;;;-3.47;87.57
70445;BME280;57902;49.638;11.070;2023-02-28T05:26:24;99169.09;;;-3.54;88.42
70445;BME280;57902;49.638;11.070;2023-02-28T05:28:50;99163.69;;;-3.42;87.48
70445;BME280;57902;49.638;11.070;2023-02-28T05:31:17;99169.69;;;-3.38;86.82
70445;BME280;57902;49.638;11.070;2023-02-28T05:33:44;99162.75;;;-3.44;87.43
70445;BME280;57902;49.638;11.070;2023-02-28T05:36:10;99166.88;;;-3.46;87.52
70445;BME280;57902;49.638;11.070;2023-02-28T05:38:37;99167.19;;;-3.38;86.74
70445;BME280;57902;49.638;11.070;2023-02-28T05:41:05;99174.44;;;-3.46;87.45
70445;BME280;57902;49.638;11.070;2023-02-28T05:43:32;99160.34;;;-3.41;87.42
70445;BME280;57902;49.638;11.070;2023-02-28T05:45:58;99170.59;;;-3.38;86.69
70445;BME280;57902;49.638;11.070;2023-02-28T05:48:25;99163.94;;;-3.36;86.84
70445;BME280;57902;49.638;11.070;2023-02-28T05:50:52;99169.59;;;-3.41;86.95
70445;BME280;57902;49.638;11.070;2023-02-28T05:53:18;99169.63;;;-3.40;86.95
70445;BME280;57902;49.638;11.070;2023-02-28T05:55:45;99176.47;;;-3.37;86.48
70445;BME280;57902;49.638;11.070;2023-02-28T05:58:11;99177.09;;;-3.43;87.22
70445;BME280;57902;49.638;11.070;2023-02-28T06:00:37;99177.69;;;-3.48;88.06
70445;BME280;57902;49.638;11.070;2023-02-28T06:03:07;99186.81;;;-3.52;88.14
70445;BME280;57902;49.638;11.070;2023-02-28T06:05:33;99188.78;;;-3.45;87.42
70445;BME280;57902;49.638;11.070;2023-02-28T06:08:00;99187.66;;;-3.52;88.04
70445;BME280;57902;49.638;11.070;2023-02-28T06:10:26;99191.31;;;-3.45;87.64
70445;BME280;57902;49.638;11.070;2023-02-28T06:12:53;99193.69;;;-3.48;87.80
70445;BME280;57902;49.638;11.070;2023-02-28T06:15:20;99192.09;;;-3.46;87.68
70445;BME280;57902;49.638;11.070;2023-02-28T06:17:47;99195.59;;;-3.42;87.72
70445;BME280;57902;49.638;11.070;2023-02-28T06:20:13;99197.38;;;-3.40;87.92
70445;BME280;57902;49.638;11.070;2023-02-28T06:22:40;99205.88;;;-3.38;87.39
70445;BME280;57902;49.638;11.070;2023-02-28T06:25:06;99199.16;;;-3.37;87.72
70445;BME280;57902;49.638;11.070;2023-02-28T06:27:34;99192.34;;;-3.40;87.78
70445;BME280;57902;49.638;11.070;2023-02-28T06:30:00;99197.38;;;-3.40;87.80
70445;BME280;57902;49.638;11.070;2023-02-28T06:32:26;99190.16;;;-3.30;87.24
70445;BME280;57902;49.638;11.070;2023-02-28T06:34:53;99201.75;;;-3.36;87.60
70445;BME280;57902;49.638;11.070;2023-02-28T06:37:19;99194.53;;;-3.26;87.70
70445;BME280;57902;49.638;11.070;2023-02-28T06:39:46;99200.56;;;-3.02;87.20
70445;BME280;57902;49.638;11.070;2023-02-28T06:42:12;99199.34;;;-2.68;85.95
70445;BME280;57902;49.638;11.070;2023-02-28T06:44:39;99200.59;;;-2.34;84.42
70445;BME280;57902;49.638;11.070;2023-02-28T06:47:06;99201.47;;;-2.09;81.97
70445;BME280;57902;49.638;11.070;2023-02-28T06:49:34;99199.72;;;-1.87;81.04
70445;BME280;57902;49.638;11.070;2023-02-28T06:52:02;99206.53;;;-1.61;80.09
70445;BME280;57902;49.638;11.070;2023-02-28T06:54:29;99211.91;;;-1.26;79.15
70445;BME280;57902;49.638;11.070;2023-02-28T06:56:57;99218.38;;;-1.08;78.36
70445;BME280;57902;49.638;11.070;2023-02-28T06:59:24;99214.63;;;-0.65;77.32
70445;BME280;57902;49.638;11.070;2023-02-28T07:01:50;99216.03;;;-0.46;75.26
70445;BME280;57902;49.638;11.070;2023-02-28T07:04:17;99222.31;;;-0.33;72.95
70445;BME280;57902;49.638;11.070;2023-02-28T07:06:43;99219.22;;;0.06;72.44
70445;BME280;57902;49.638;11.070;2023-02-28T07:09:10;99223.38;;;0.36;72.10
70445;BME280;57902;49.638;11.070;2023-02-28T07:11:37;99213.41;;;0.76;71.38
70445;BME280;57902;49.638;11.070;2023-02-28T07:14:03;99218.00;;;0.92;68.11
70445;BME280;57902;49.638;11.070;2023-02-28T07:16:30;99216.28;;;1.28;67.30
70445;BME280;57902;49.638;11.070;2023-02-28T07:18:56;99216.44;;;1.32;65.53
70445;BME280;57902;49.638;11.070;2023-02-28T07:21:23;99211.41;;;1.35;65.80
70445;BME280;57902;49.638;11.070;2023-02-28T07:23:49;99215.81;;;1.43;64.72
70445;BME280;57902;49.638;11.070;2023-02-28T07:26:17;99218.34;;;1.43;65.91
70445;BME280;57902;49.638;11.070;2023-02-28T07:28:47;99223.28;;;1.76;65.89
70445;BME280;57902;49.638;11.070;2023-02-28T07:31:14;99226.44;;;1.28;65.00
70445;BME280;57902;49.638;11.070;2023-02-28T07:33:41;99220.13;;;1.48;64.93
70445;BME280;57902;49.638;11.070;2023-02-28T07:36:14;99227.66;;;1.83;64.97
70445;BME280;57902;49.638;11.070;2023-02-28T07:38:46;99226.59;;;1.72;63.46
70445;BME280;57902;49.638;11.070;2023-02-28T07:41:21;99229.19;;;1.75;63.92
70445;BME280;57902;49.638;11.070;2023-02-28T07:43:48;99221.06;;;2.36;63.36
70445;BME280;57902;49.638;11.070;2023-02-28T07:46:16;99221.69;;;2.24;63.62
70445;BME280;57902;49.638;11.070;2023-02-28T07:48:43;99225.44;;;2.43;62.80
70445;BME280;57902;49.638;11.070;2023-02-28T07:51:10;99228.72;;;2.86;59.98
70445;BME280;57902;49.638;11.070;2023-02-28T07:53:36;99223.09;;;2.55;61.53
70445;BME280;57902;49.638;11.070;2023-02-28T07:56:03;99219.28;;;3.36;60.43
70445;BME280;57902;49.638;11.070;2023-02-28T07:58:30;99224.84;;;3.68;59.04
70445;BME280;57902;49.638;11.070;2023-02-28T08:01:04;99220.66;;;3.72;56.80
70445;BME280;57902;49.638;11.070;2023-02-28T08:03:31;99227.19;;;3.51;58.39
70445;BME280;57902;49.638;11.070;2023-02-28T08:05:58;99221.84;;;3.36;57.97
70445;BME280;57902;49.638;11.070;2023-02-28T08:08:24;99222.59;;;3.28;58.03
70445;BME280;57902;49.638;11.070;2023-02-28T08:11:01;99233.81;;;4.06;55.97
70445;BME280;57902;49.638;11.070;2023-02-28T08:13:30;99231.34;;;4.98;50.50
70445;BME280;57902;49.638;11.070;2023-02-28T08:15:56;99222.84;;;5.02;51.18
70445;BME280;57902;49.638;11.070;2023-02-28T08:18:23;99227.97;;;5.05;50.89
70445;BME280;57902;49.638;11.070;2023-02-28T08:20:50;99233.06;;;5.02;50.63
70445;BME280;57902;49.638;11.070;2023-02-28T08:23:16;99209.31;;;5.17;49.93
70445;BME280;57902;49.638;11.070;2023-02-28T08:25:43;99220.22;;;4.94;50.29
70445;BME280;57902;49.638;11.070;2023-02-28T08:28:09;99219.41;;;4.98;49.88
70445;BME280;57902;49.638;11.070;2023-02-28T08:30:36;99218.19;;;4.58;50.46
70445;BME280;57902;49.638;11.070;2023-02-28T08:33:03;99219.94;;;4.60;50.57
70445;BME280;57902;49.638;11.070;2023-02-28T08:35:29;99230.00;;;5.48;46.85
70445;BME280;57902;49.638;11.070;2023-02-28T08:37:56;99219.78;;;5.48;45.97
70445;BME280;57902;49.638;11.070;2023-02-28T08:40:22;99222.59;;;4.74;49.16
70445;BME280;57902;49.638;11.070;2023-02-28T08:42:48;99230.63;;;4.24;49.82
70445;BME280;57902;49.638;11.070;2023-02-28T08:45:15;99228.28;;;4.42;48.66
70445;BME280;57902;49.638;11.070;2023-02-28T08:47:42;99231.41;;;4.18;48.83
70445;BME280;57902;49.638;11.070;2023-02-28T08:50:09;99219.56;;;3.54;50.71
70445;BME280;57902;49.638;11.070;2023-02-28T08:52:35;99221.38;;;3.61;51.25
70445;BME280;57902;49.638;11.070;2023-02-28T08:55:02;99226.53;;;3.67;51.34
70445;BME280;57902;49.638;11.070;2023-02-28T08:57:29;99218.06;;;3.68;51.17
70445;BME280;57902;49.638;11.070;2023-02-28T08:59:55;99219.00;;;3.77;52.04
70445;BME280;57902;49.638;11.070;2023-02-28T09:02:22;99228.47;;;3.85;51.34
70445;BME280;57902;49.638;11.070;2023-02-28T09:04:48;99215.03;;;3.99;51.32
70445;BME280;57902;49.638;11.070;2023-02-28T09:07:15;99224.00;;;4.43;49.82
70445;BME280;57902;49.638;11.070;2023-02-28T09:09:41;99222.91;;;4.19;49.74
70445;BME280;57902;49.638;11.070;2023-02-28T09:12:24;99216.66;;;3.92;49.81
70445;BME280;57902;49.638;11.070;2023-02-28T09:14:52;99211.47;;;3.88;50.20
70445;BME280;57902;49.638;11.070;2023-02-28T09:17:19;99225.59;;;4.31;49.26
70445;BME280;57902;49.638;11.070;2023-02-28T09:19:48;99217.22;;;4.45;48.63
70445;BME280;57902;49.638;11.070;2023-02-28T09:22:15;99219.63;;;4.29;49.45
70445;BME280;57902;49.638;11.070;2023-02-28T09:24:42;99217.94;;;4.33;48.48
70445;BME280;57902;49.638;11.070;2023-02-28T09:27:08;99213.38;;;4.02;48.26
70445;BME280;57902;49.638;11.070;2023-02-28T09:29:35;99220.63;;;3.70;49.65
70445;BME280;57902;49.638;11.070;2023-02-28T09:32:02;99222.53;;;3.24;50.66
70445;BME280;57902;49.638;11.070;2023-02-28T09:34:29;99222.31;;;3.10;50.37
70445;BME280;57902;49.638;11.070;2023-02-28T09:36:57;99226.78;;;2.73;51.83
70445;BME280;57902;49.638;11.070;2023-02-28T09:39:24;99223.22;;;2.61;52.46
70445;BME280;57902;49.638;11.070;2023-02-28T09:41:54;99221.41;;;2.54;52.53
70445;BME280;57902;49.638;11.070;2023-02-28T09:44:31;99227.81;;;2.34;53.10
70445;BME280;57902;49.638;11.070;2023-02-28T09:47:08;99225.91;;;2.22;53.85
70445;BME280;57902;49.638;11.070;2023-02-28T09:49:42;99210.41;;;2.11;54.49
70445;BME280;57902;49.638;11.070;2023-02-28T09:52:33;99217.38;;;2.21;54.27
70445;BME280;57902;49.638;11.070;2023-02-28T09:55:19;99228.09;;;2.49;55.02
70445;BME280;57902;49.638;11.070;2023-02-28T09:57:46;99231.38;;;2.92;53.19
70445;BME280;57902;49.638;11.070;2023-02-28T10:08:36;99231.28;;;3.43;52.22
70445;BME280;57902;49.638;11.070;2023-02-28T10:11:09;99220.53;;;3.64;50.19
70445;BME280;57902;49.638;11.070;2023-02-28T10:17:04;99221.28;;;3.57;51.83
70445;BME280;57902;49.638;11.070;2023-02-28T10:22:26;99222.13;;;4.23;49.49
70445;BME280;57902;49.638;11.070;2023-02-28T10:24:55;99211.16;;;4.33;48.87
70445;BME280;57902;49.638;11.070;2023-02-28T10:27:31;99211.13;;;4.29;48.59
70445;BME280;57902;49.638;11.070;2023-02-28T10:30:00;99218.63;;;4.18;49.32
70445;BME280;57902;49.638;11.070;2023-02-28T10:37:39;99206.94;;;3.65;49.79
70445;BME280;57902;49.638;11.070;2023-02-28T10:40:26;99206.91;;;3.62;50.41
70445;BME280;57902;49.638;11.070;2023-02-28T10:43:05;99207.09;;;3.77;49.11
70445;BME280;57902;49.638;11.070;2023-02-28T10:45:33;99208.06;;;3.85;49.52
70445;BME280;57902;49.638;11.070;2023-02-28T10:48:06;99202.88;;;3.78;50.02
70445;BME280;57902;49.638;11.070;2023-02-28T10:50:52;99207.09;;;3.77;49.69
70445;BME280;57902;49.638;11.070;2023-02-28T10:59:02;99195.22;;;3.15;50.89
70445;BME280;57902;49.638;11.070;2023-02-28T11:01:41;99208.50;;;3.55;50.50
70445;BME280;57902;49.638;11.070;2023-02-28T11:04:35;99198.03;;;3.33;50.13
70445;BME280;57902;49.638;11.070;2023-02-28T11:07:19;99198.84;;;3.31;50.53
70445;BME280;57902;49.638;11.070;2023-02-28T11:09:52;99198.81;;;3.29;50.47
70445;BME280;57902;49.638;11.070;2023-02-28T11:12:27;99202.56;;;3.53;50.46
70445;BME280;57902;49.638;11.070;2023-02-28T11:14:57;99193.75;;;3.31;50.02
70445;BME280;57902;49.638;11.070;2023-02-28T11:17:28;99201.78;;;3.60;50.00
70445;BME280;57902;49.638;11.070;2023-02-28T11:19:58;99200.97;;;3.61;48.61
70445;BME280;57902;49.638;11.070;2023-02-28T11:22:31;99189.69;;;3.44;49.99
70445;BME280;57902;49.638;11.070;2023-02-28T11:25:02;99199.22;;;3.59;50.09
70445;BME280;57902;49.638;11.070;2023-02-28T11:29:56;99188.31;;;3.69;50.11
70445;BME280;57902;49.638;11.070;2023-02-28T11:32:25;99197.16;;;3.97;49.22
70445;BME280;57902;49.638;11.070;2023-02-28T11:35:23;99187.84;;;4.01;47.73
70445;BME280;57902;49.638;11.070;2023-02-28T11:37:51;99188.69;;;4.01;48.38
70445;BME280;57902;49.638;11.070;2023-02-28T11:40:23;99189.41;;;3.88;48.06
70445;BME280;57902;49.638;11.070;2023-02-28T11:45:54;99191.25;;;4.01;48.09
70445;BME280;57902;49.638;11.070;2023-02-28T11:51:21;99191.19;;;3.95;47.58
70445;BME280;57902;49.638;11.070;2023-02-28T11:53:55;99186.19;;;4.05;48.70
70445;BME280;57902;49.638;11.070;2023-02-28T11:56:38;99185.31;;;4.02;47.86
70445;BME280;57902;49.638;11.070;2023-02-28T12:07:45;99188.91;;;4.18;47.65
70445;BME280;57902;49.638;11.070;2023-02-28T12:10:24;99184.63;;;4.19;47.77
70445;BME280;57902;49.638;11.070;2023-02-28T12:16:07;99177.75;;;4.12;47.09
70445;BME280;57902;49.638;11.070;2023-02-28T12:19:29;99179.47;;;4.11;47.41
70445;BME280;57902;49.638;11.070;2023-02-28T12:21:54;99177.78;;;4.15;47.35
70445;BME280;57902;49.638;11.070;2023-02-28T12:26:53;99160.88;;;4.23;47.36
70445;BME280;57902;49.638;11.070;2023-02-28T12:29:30;99169.25;;;4.11;47.87
70445;BME280;57902;49.638;11.070;2023-02-28T12:35:04;99160.13;;;4.36;46.61
70445;BME280;57902;49.638;11.070;2023-02-28T12:37:40;99152.47;;;4.36;46.23
70445;BME280;57902;49.638;11.070;2023-02-28T12:40:15;99148.94;;;4.24;47.06
70445;BME280;57902;49.638;11.070;2023-02-28T12:42:50;99149.94;;;4.36;46.45
70445;BME280;57902;49.638;11.070;2023-02-28T12:45:24;99142.31;;;4.43;46.85
70445;BME280;57902;49.638;11.070;2023-02-28T12:48:00;99147.41;;;4.41;47.15
70445;BME280;57902;49.638;11.070;2023-02-28T12:50:27;99151.72;;;4.45;47.56
70445;BME280;57902;49.638;11.070;2023-02-28T12:53:43;99164.53;;;4.53;46.91
70445;BME280;57902;49.638;11.070;2023-02-28T12:55:49;99147.44;;;4.43;47.20
70445;BME280;57902;49.638;11.070;2023-02-28T12:58:35;99154.22;;;4.41;46.97
70445;BME280;57902;49.638;11.070;2023-02-28T13:01:34;99150.72;;;4.29;48.04
70445;BME280;57902;49.638;11.070;2023-02-28T13:09:59;99140.59;;;4.42;47.72
70445;BME280;57902;49.638;11.070;2023-02-28T13:12:26;99148.41;;;4.59;48.21
70445;BME280;57902;49.638;11.070;2023-02-28T13:15:06;99153.47;;;4.49;45.94
70445;BME280;57902;49.638;11.070;2023-02-28T13:17:39;99148.19;;;4.34;46.62
70445;BME280;57902;49.638;11.070;2023-02-28T13:20:25;99149.81;;;4.27;46.97
70445;BME280;57902;49.638;11.070;2023-02-28T13:22:56;99139.81;;;4.47;47.22
70445;BME280;57902;49.638;11.070;2023-02-28T13:28:13;99133.81;;;4.44;47.67
70445;BME280;57902;49.638;11.070;2023-02-28T13:33:36;99142.31;;;4.43;48.13
70445;BME280;57902;49.638;11.070;2023-02-28T13:36:32;99139.97;;;4.67;46.58
70445;BME280;57902;49.638;11.070;2023-02-28T13:39:01;99137.88;;;4.20;47.45
70445;BME280;57902;49.638;11.070;2023-02-28T13:44:17;99125.16;;;4.25;48.03
70445;BME280;57902;49.638;11.070;2023-02-28T13:51:54;99137.22;;;4.43;47.52
70445;BME280;57902;49.638;11.070;2023-02-28T13:57:35;99131.25;;;4.42;47.45
70445;BME280;57902;49.638;11.070;2023-02-28T14:06:22;99129.53;;;4.41;47.77
70445;BME280;57902;49.638;11.070;2023-02-28T14:11:42;99120.19;;;4.45;47.45
70445;BME280;57902;49.638;11.070;2023-02-28T14:17:04;99125.31;;;4.45;47.15
70445;BME280;57902;49.638;11.070;2023-02-28T14:19:34;99125.44;;;4.57;46.06
70445;BME280;57902;49.638;11.070;2023-02-28T14:22:10;99137.28;;;4.52;47.08
70445;BME280;57902;49.638;11.070;2023-02-28T14:27:53;99131.25;;;4.42;48.17
70445;BME280;57902;49.638;11.070;2023-02-28T14:30:48;99134.66;;;4.43;46.94
70445;BME280;57902;49.638;11.070;2023-02-28T14:41:17;99120.13;;;4.37;47.96
70445;BME280;57902;49.638;11.070;2023-02-28T14:43:54;99117.72;;;4.49;47.31
70445;BME280;57902;49.638;11.070;2023-02-28T14:46:21;99121.03;;;4.41;47.53
70445;BME280;57902;49.638;11.070;2023-02-28T14:48:49;99111.66;;;4.40;47.11
70445;BME280;57902;49.638;11.070;2023-02-28T14:51:21;99117.53;;;4.29;47.82
70445;BME280;57902;49.638;11.070;2023-02-28T14:53:59;99109.78;;;4.20;47.94
70445;BME280;57902;49.638;11.070;2023-02-28T14:56:36;99113.22;;;4.25;48.32
70445;BME280;57902;49.638;11.070;2023-02-28T14:59:04;99113.22;;;4.25;47.98
70445;BME280;57902;49.638;11.070;2023-02-28T15:01:31;99120.06;;;4.28;48.21
70445;BME280;57902;49.638;11.070;2023-02-28T15:04:05;99115.72;;;4.19;48.62
70445;BME280;57902;49.638;11.070;2023-02-28T15:06:33;99113.19;;;4.19;48.10
70445;BME280;57902;49.638;11.070;2023-02-28T15:09:24;99125.00;;;4.11;49.00
70445;BME280;57902;49.638;11.070;2023-02-28T15:11:51;99118.28;;;4.20;47.85
70445;BME280;57902;49.638;11.070;2023-02-28T15:14:19;99112.25;;;4.11;48.04
70445;BME280;57902;49.638;11.070;2023-02-28T15:17:00;99119.19;;;4.27;48.29